createdAt,value
2019-03-03T00:00:04.529Z,93.90
2019-03-03T00:02:51.779Z,93.90
2019-03-03T00:05:33.794Z,94.00
2019-03-03T00:08:15.621Z,94.00
2019-03-03T00:10:58.034Z,94.10
2019-03-03T00:13:40.301Z,94.20
2019-03-03T00:16:24.011Z,94.10
2019-03-03T00:19:05.876Z,94.20
2019-03-03T00:21:48.174Z,94.20
2019-03-03T00:24:31.053Z,94.20
2019-03-03T00:27:13.533Z,94.30
2019-03-03T00:29:56.396Z,94.20
2019-03-03T00:32:40.475Z,94.20
2019-03-03T00:35:23.489Z,94.20
2019-03-03T00:38:27.337Z,94.10
2019-03-03T00:41:29.430Z,94.10
2019-03-03T00:44:30.390Z,94.00
2019-03-03T00:47:31.433Z,94.00
2019-03-03T00:50:36.132Z,94.10
2019-03-03T00:53:42.170Z,94.10
2019-03-03T00:56:31.352Z,94.10
2019-03-03T00:59:32.593Z,94.10
2019-03-03T01:02:36.278Z,94.10
2019-03-03T01:05:38.480Z,94.20
2019-03-03T01:08:39.508Z,94.10
2019-03-03T01:11:43.346Z,94.10
2019-03-03T01:14:44.748Z,94.10
2019-03-03T01:17:29.190Z,94.20
2019-03-03T01:20:36.768Z,94.20
2019-03-03T01:23:37.526Z,94.30
2019-03-03T01:26:21.397Z,94.30
2019-03-03T01:29:06.292Z,94.30
2019-03-03T01:31:48.474Z,94.30
2019-03-03T01:34:31.356Z,94.30
2019-03-03T01:37:15.826Z,94.30
2019-03-03T01:39:58.868Z,94.20
2019-03-03T01:42:42.504Z,94.10
2019-03-03T01:45:27.032Z,94.10
2019-03-03T01:48:08.684Z,94.10
2019-03-03T01:50:51.449Z,94.00
2019-03-03T01:53:33.426Z,94.10
2019-03-03T01:56:15.936Z,94.10
2019-03-03T01:58:59.787Z,94.10
2019-03-03T02:01:42.590Z,94.10
2019-03-03T02:04:24.610Z,94.10
2019-03-03T02:07:07.470Z,94.10
2019-03-03T02:09:49.370Z,93.90
2019-03-03T02:12:31.729Z,93.40
2019-03-03T02:15:13.893Z,92.90
2019-03-03T02:17:56.609Z,92.20
2019-03-03T02:20:38.596Z,91.60
2019-03-03T02:23:20.742Z,91.20
2019-03-03T02:26:02.860Z,90.80
2019-03-03T02:28:44.922Z,90.60
2019-03-03T02:31:27.161Z,90.20
2019-03-03T02:34:09.800Z,90.00
2019-03-03T02:36:51.721Z,89.60
2019-03-03T02:39:33.985Z,89.50
2019-03-03T02:42:17.198Z,89.50
2019-03-03T02:44:59.256Z,89.50
2019-03-03T02:47:41.436Z,89.40
2019-03-03T02:50:24.289Z,89.20
2019-03-03T02:53:06.619Z,89.20
2019-03-03T02:55:49.451Z,89.30
2019-03-03T02:58:32.572Z,89.20
2019-03-03T03:04:27.807Z,89.40
2019-03-03T03:07:30.799Z,89.50
2019-03-03T03:10:33.890Z,89.60
2019-03-03T03:13:39.602Z,89.40
2019-03-03T03:16:33.413Z,89.20
2019-03-03T03:19:40.035Z,89.20
2019-03-03T03:22:23.005Z,89.00
2019-03-03T03:25:13.443Z,89.10
2019-03-03T03:28:14.281Z,89.00
2019-03-03T03:30:57.357Z,88.80
2019-03-03T03:33:48.786Z,88.70
2019-03-03T03:36:52.451Z,88.50
2019-03-03T03:42:57.732Z,88.30
2019-03-03T03:46:01.741Z,87.90
2019-03-03T03:49:06.063Z,87.80
2019-03-03T03:51:55.277Z,87.50
2019-03-03T03:54:44.573Z,87.40
2019-03-03T03:57:48.102Z,87.30
2019-03-03T04:00:52.449Z,87.30
2019-03-03T04:06:38.637Z,87.20
2019-03-03T04:09:44.755Z,87.30
2019-03-03T04:12:46.947Z,87.00
2019-03-03T04:15:29.842Z,86.90
2019-03-03T04:18:32.585Z,86.80
2019-03-03T04:21:15.448Z,86.60
2019-03-03T04:24:19.442Z,86.40
2019-03-03T04:27:19.041Z,86.10
2019-03-03T04:30:15.825Z,85.70
2019-03-03T04:33:09.063Z,86.00
2019-03-03T04:35:51.813Z,85.00
2019-03-03T04:38:55.233Z,84.90
2019-03-03T04:41:45.838Z,85.00
2019-03-03T04:44:46.864Z,84.70
2019-03-03T04:47:29.685Z,84.80
2019-03-03T04:53:12.957Z,84.90
2019-03-03T04:56:14.284Z,85.00
2019-03-03T04:59:15.262Z,85.10
2019-03-03T05:02:15.732Z,85.00
2019-03-03T05:05:17.824Z,85.30
2019-03-03T05:08:10.897Z,85.30
2019-03-03T05:10:55.814Z,85.40
2019-03-03T05:13:45.185Z,85.70
2019-03-03T05:16:33.637Z,85.80
2019-03-03T05:19:40.507Z,86.00
2019-03-03T05:22:23.014Z,86.40
2019-03-03T05:25:06.927Z,86.60
2019-03-03T05:27:49.037Z,86.80
2019-03-03T05:30:30.831Z,86.90
2019-03-03T05:33:12.944Z,87.00
2019-03-03T05:35:54.805Z,87.40
2019-03-03T05:38:36.721Z,87.50
2019-03-03T05:41:18.492Z,87.50
2019-03-03T05:44:00.403Z,87.80
2019-03-03T05:46:42.428Z,87.70
2019-03-03T05:49:24.293Z,87.50
2019-03-03T05:52:06.126Z,87.50
2019-03-03T05:54:49.139Z,87.80
2019-03-03T05:57:31.136Z,88.50
2019-03-03T06:00:13.969Z,89.10
2019-03-03T06:02:56.340Z,89.50
2019-03-03T06:05:38.249Z,89.90
2019-03-03T06:08:20.084Z,89.70
2019-03-03T06:10:50.551Z,89.70
2019-03-03T06:13:32.265Z,89.70
2019-03-03T06:16:14.245Z,89.70
2019-03-03T06:18:58.100Z,89.50
2019-03-03T06:21:40.018Z,89.70
2019-03-03T06:24:22.153Z,89.80
2019-03-03T06:27:04.213Z,90.00
2019-03-03T06:29:45.869Z,90.10
2019-03-03T06:32:27.672Z,90.00
2019-03-03T06:35:11.551Z,90.10
2019-03-03T06:37:55.724Z,90.00
2019-03-03T06:40:39.840Z,90.00
2019-03-03T06:43:22.925Z,90.00
2019-03-03T06:46:06.845Z,89.70
2019-03-03T06:48:49.974Z,89.60
2019-03-03T06:51:35.502Z,89.50
2019-03-03T06:54:17.665Z,89.40
2019-03-03T06:56:59.353Z,89.40
2019-03-03T06:59:43.216Z,89.40
2019-03-03T07:02:26.780Z,89.20
2019-03-03T07:05:08.605Z,89.10
2019-03-03T07:07:50.672Z,89.40
2019-03-03T07:10:32.546Z,89.50
2019-03-03T07:13:14.353Z,89.30
2019-03-03T07:15:58.180Z,89.10
2019-03-03T07:18:40.068Z,88.90
2019-03-03T07:21:22.094Z,88.80
2019-03-03T07:24:04.299Z,88.20
2019-03-03T07:26:46.385Z,88.00
2019-03-03T07:29:28.281Z,87.70
2019-03-03T07:32:10.254Z,87.10
2019-03-03T07:34:52.479Z,86.50
2019-03-03T07:37:36.350Z,86.20
2019-03-03T07:40:18.551Z,85.90
2019-03-03T07:43:00.805Z,85.40
2019-03-03T07:45:42.809Z,84.90
2019-03-03T07:48:24.808Z,84.80
2019-03-03T07:54:15.223Z,82.80
2019-03-03T07:56:57.603Z,82.80
2019-03-03T07:59:39.808Z,82.40
2019-03-03T08:02:21.843Z,81.60
2019-03-03T08:05:04.031Z,80.50
2019-03-03T08:07:45.952Z,79.40
2019-03-03T08:10:27.850Z,78.60
2019-03-03T08:13:09.768Z,77.10
2019-03-03T08:15:52.812Z,76.30
2019-03-03T08:18:34.647Z,75.90
2019-03-03T08:21:16.620Z,76.10
2019-03-03T08:23:58.569Z,75.00
2019-03-03T08:26:40.688Z,74.60
2019-03-03T08:29:22.616Z,73.40
2019-03-03T08:32:04.835Z,72.40
2019-03-03T08:34:46.728Z,71.40
2019-03-03T08:37:29.629Z,69.90
2019-03-03T08:40:11.562Z,68.70
2019-03-03T08:42:54.632Z,68.40
2019-03-03T08:48:40.909Z,65.30
2019-03-03T08:51:37.032Z,64.80
2019-03-03T08:54:37.614Z,61.90
2019-03-03T09:00:25.376Z,54.80
2019-03-03T09:03:25.876Z,46.30
2019-03-03T09:06:28.962Z,37.20
2019-03-03T09:09:31.880Z,32.70
2019-03-03T09:15:17.398Z,27.20
2019-03-03T09:18:10.254Z,30.80
2019-03-03T09:24:13.126Z,38.60
2019-03-03T09:27:15.193Z,43.00
2019-03-03T09:30:19.278Z,48.90
2019-03-03T09:33:20.154Z,49.50
2019-03-03T09:36:02.890Z,50.60
2019-03-03T09:39:00.543Z,50.30
2019-03-03T09:42:06.050Z,49.70
2019-03-03T09:45:08.185Z,50.80
2019-03-03T09:48:11.069Z,52.70
2019-03-03T09:51:15.094Z,54.40
2019-03-03T09:54:18.886Z,56.10
2019-03-03T09:57:22.787Z,57.20
2019-03-03T10:00:25.647Z,58.70
2019-03-03T10:03:28.319Z,60.80
2019-03-03T10:06:24.336Z,61.20
2019-03-03T10:09:31.383Z,61.60
2019-03-03T10:15:30.541Z,59.80
2019-03-03T10:18:20.846Z,51.40
2019-03-03T10:21:05.356Z,38.50
2019-03-03T10:30:25.431Z,37.30
2019-03-03T10:33:28.674Z,25.80
2019-03-03T10:36:38.179Z,24.90
2019-03-03T10:39:25.047Z,25.60
2019-03-03T10:42:28.607Z,24.90
2019-03-03T10:45:11.509Z,23.20
2019-03-03T10:48:05.392Z,22.40
2019-03-03T10:51:03.810Z,21.60
2019-03-03T10:54:05.124Z,21.90
2019-03-03T10:56:48.280Z,20.30
2019-03-03T10:59:55.099Z,20.50
2019-03-03T11:02:42.062Z,21.10
2019-03-03T11:05:44.809Z,21.50
2019-03-03T11:08:48.658Z,22.00
2019-03-03T11:14:52.956Z,22.90
2019-03-03T11:17:55.971Z,24.10
2019-03-03T11:20:59.576Z,25.90
2019-03-03T11:26:44.676Z,27.60
2019-03-03T11:29:35.483Z,26.70
2019-03-03T11:32:18.259Z,25.10
2019-03-03T11:35:18.833Z,25.90
2019-03-03T11:38:27.936Z,26.90
2019-03-03T11:41:33.691Z,27.70
2019-03-03T11:44:16.430Z,28.00
2019-03-03T11:53:29.864Z,26.40
2019-03-03T11:56:19.251Z,25.90
2019-03-03T11:59:01.876Z,25.90
2019-03-03T12:05:05.529Z,25.00
2019-03-03T12:13:42.260Z,24.60
2019-03-03T12:16:42.340Z,25.00
2019-03-03T12:19:46.275Z,26.70
2019-03-03T12:22:50.815Z,29.00
2019-03-03T12:25:39.422Z,29.40
2019-03-03T12:28:30.872Z,30.30
2019-03-03T12:31:13.265Z,31.30
2019-03-03T12:34:06.043Z,32.10
2019-03-03T12:37:08.791Z,32.60
2019-03-03T12:40:12.960Z,33.40
2019-03-03T12:43:16.723Z,33.00
2019-03-03T12:46:17.662Z,32.10
2019-03-03T12:49:18.396Z,32.40
2019-03-03T12:52:19.903Z,32.70
2019-03-03T12:55:23.590Z,33.30
2019-03-03T12:58:12.594Z,34.60
2019-03-03T13:01:15.362Z,34.90
2019-03-03T13:04:22.144Z,35.50
2019-03-03T13:07:22.514Z,35.70
2019-03-03T13:10:26.634Z,36.20
2019-03-03T13:13:33.521Z,35.90
2019-03-03T13:16:34.100Z,37.30
2019-03-03T13:19:16.872Z,37.70
2019-03-03T13:28:08.812Z,40.20
2019-03-03T13:31:04.605Z,40.30
2019-03-03T13:34:06.522Z,40.10
2019-03-03T13:36:49.325Z,39.70
2019-03-03T13:39:43.979Z,40.00
2019-03-03T13:42:26.850Z,41.40
2019-03-03T13:45:10.859Z,41.80
2019-03-03T13:47:53.009Z,42.00
2019-03-03T13:50:35.104Z,41.90
2019-03-03T13:53:17.813Z,41.50
2019-03-03T13:55:59.753Z,41.30
2019-03-03T13:58:42.044Z,40.90
2019-03-03T14:01:23.798Z,41.10
2019-03-03T14:04:06.227Z,41.70
2019-03-03T14:06:49.398Z,41.50
2019-03-03T14:09:33.496Z,42.00
2019-03-03T14:12:18.832Z,42.00
2019-03-03T14:15:01.144Z,42.30
2019-03-03T14:17:43.302Z,42.30
2019-03-03T14:20:25.034Z,42.30
2019-03-03T14:23:07.931Z,42.80
2019-03-03T14:25:51.730Z,43.30
2019-03-03T14:28:34.410Z,43.80
2019-03-03T14:31:16.420Z,43.70
2019-03-03T14:33:58.233Z,44.00
2019-03-03T14:36:41.061Z,44.40
2019-03-03T14:39:22.902Z,60.40
2019-03-03T14:42:04.707Z,44.30
2019-03-03T14:44:46.432Z,48.70
2019-03-03T15:25:45.253Z,43.10
2019-03-03T15:28:27.017Z,43.80
2019-03-03T15:31:10.643Z,43.70
2019-03-03T15:33:54.745Z,43.90
2019-03-03T15:36:38.888Z,44.10
2019-03-03T15:39:22.710Z,44.40
2019-03-03T15:42:04.696Z,44.80
2019-03-03T15:44:46.990Z,45.30
2019-03-03T15:47:30.771Z,45.40
2019-03-03T15:50:13.035Z,45.50
2019-03-03T15:52:54.619Z,45.50
2019-03-03T15:55:36.405Z,45.40
2019-03-03T15:58:21.987Z,45.60
2019-03-03T16:01:03.939Z,45.90
2019-03-03T16:03:47.834Z,46.10
2019-03-03T16:06:29.676Z,46.40
2019-03-03T16:09:16.445Z,46.60
2019-03-03T16:11:58.530Z,46.60
2019-03-03T16:14:40.797Z,46.80
2019-03-03T16:17:24.644Z,46.80
2019-03-03T16:20:08.568Z,47.00
2019-03-03T16:22:50.331Z,47.20
2019-03-03T16:25:32.394Z,47.40
2019-03-03T16:28:15.274Z,47.70
2019-03-03T16:30:57.205Z,47.50
2019-03-03T16:33:39.821Z,47.70
2019-03-03T16:36:23.973Z,47.80
2019-03-03T16:39:06.355Z,47.60
2019-03-03T16:41:48.484Z,47.80
2019-03-03T16:44:31.490Z,47.90
2019-03-03T16:47:13.358Z,48.00
2019-03-03T16:49:55.434Z,48.20
2019-03-03T16:52:36.941Z,48.20
2019-03-03T16:55:19.681Z,48.40
2019-03-03T16:58:01.852Z,48.50
2019-03-03T17:00:43.833Z,48.50
2019-03-03T17:03:25.741Z,48.50
2019-03-03T17:06:07.621Z,48.70
2019-03-03T17:08:50.515Z,48.60
2019-03-03T17:11:33.377Z,48.60
2019-03-03T17:14:15.446Z,48.70
2019-03-03T17:16:58.654Z,51.90
2019-03-03T17:19:42.600Z,54.00
2019-03-03T17:22:24.469Z,54.90
2019-03-03T17:25:06.509Z,56.10
2019-03-03T17:27:48.092Z,57.30
2019-03-03T17:30:29.934Z,58.50
2019-03-03T17:33:12.932Z,59.20
2019-03-03T17:35:57.028Z,59.80
2019-03-03T17:38:39.998Z,60.70
2019-03-03T17:41:21.869Z,61.80
2019-03-03T17:44:03.799Z,62.60
2019-03-03T17:46:45.497Z,62.80
2019-03-03T17:49:27.438Z,63.40
2019-03-03T17:54:51.909Z,64.30
2019-03-03T17:57:33.789Z,64.60
2019-03-03T18:00:18.351Z,64.60
2019-03-03T18:03:00.041Z,64.90
2019-03-03T18:05:44.265Z,65.00
2019-03-03T18:08:26.396Z,65.20
2019-03-03T18:11:08.302Z,65.50
2019-03-03T18:13:51.105Z,65.60
2019-03-03T18:16:35.412Z,65.90
2019-03-03T18:19:17.274Z,66.10
2019-03-03T18:22:01.085Z,66.20
2019-03-03T18:24:45.141Z,66.20
2019-03-03T18:27:27.245Z,66.40
2019-03-03T18:30:09.384Z,66.50
2019-03-03T18:32:51.284Z,66.30
2019-03-03T18:35:33.346Z,66.20
2019-03-03T18:38:15.437Z,66.20
2019-03-03T18:40:57.341Z,66.10
2019-03-03T18:43:39.001Z,66.00
2019-03-03T18:46:21.737Z,66.10
2019-03-03T18:49:03.789Z,66.10
2019-03-03T18:51:46.106Z,66.10
2019-03-03T18:54:27.764Z,66.00
2019-03-03T18:57:09.401Z,66.10
2019-03-03T18:59:51.342Z,66.20
2019-03-03T19:02:34.172Z,66.20
2019-03-03T19:05:17.832Z,66.40
2019-03-03T19:08:01.133Z,66.60
2019-03-03T19:10:43.155Z,66.60
2019-03-03T19:13:24.952Z,66.80
2019-03-03T19:16:06.930Z,66.80
2019-03-03T19:18:50.653Z,66.90
2019-03-03T19:21:32.854Z,66.90
2019-03-03T19:24:15.874Z,67.00
2019-03-03T19:26:58.036Z,66.80
2019-03-03T19:29:41.436Z,66.90
2019-03-03T19:32:23.342Z,67.20
2019-03-03T19:35:05.714Z,67.20
2019-03-03T19:37:49.563Z,67.30
2019-03-03T19:40:32.504Z,67.50
2019-03-03T19:43:14.437Z,67.60
2019-03-03T19:45:57.357Z,68.70
2019-03-03T19:48:39.276Z,68.20
2019-03-03T19:51:21.470Z,68.60
2019-03-03T19:54:03.221Z,68.70
2019-03-03T19:56:47.339Z,69.10
2019-03-03T19:59:29.222Z,69.70
2019-03-03T20:02:12.219Z,70.00
2019-03-03T20:04:56.103Z,70.10
2019-03-03T20:07:38.924Z,70.20
2019-03-03T20:10:20.914Z,70.40
2019-03-03T20:13:02.997Z,70.60
2019-03-03T20:15:45.132Z,70.90
2019-03-03T20:18:27.012Z,71.30
2019-03-03T20:21:08.729Z,71.30
2019-03-03T20:23:50.778Z,71.40
2019-03-03T20:26:33.839Z,71.50
2019-03-03T20:29:15.683Z,71.80
2019-03-03T20:31:58.226Z,71.90
2019-03-03T20:34:40.068Z,72.30
2019-03-03T20:37:22.223Z,72.20
2019-03-03T20:40:04.737Z,72.10
2019-03-03T20:42:47.421Z,72.00
2019-03-03T20:45:29.194Z,72.20
2019-03-03T20:48:12.084Z,72.50
2019-03-03T20:50:56.146Z,72.70
2019-03-03T20:53:40.523Z,72.80
2019-03-03T20:56:24.740Z,72.90
2019-03-03T20:59:06.840Z,73.00
2019-03-03T21:01:49.749Z,72.90
2019-03-03T21:04:33.536Z,73.00
2019-03-03T21:07:15.499Z,72.90
2019-03-03T21:09:57.790Z,73.00
2019-03-03T21:12:40.388Z,73.30
2019-03-03T21:15:22.082Z,73.30
2019-03-03T21:18:04.978Z,73.40
2019-03-03T21:20:49.023Z,73.60
2019-03-03T21:23:32.076Z,73.60
2019-03-03T21:26:16.012Z,73.90
2019-03-03T21:28:58.062Z,74.30
2019-03-03T21:31:41.869Z,74.40
2019-03-03T21:34:24.686Z,74.50
2019-03-03T21:37:08.394Z,74.70
2019-03-03T21:39:51.490Z,74.90
2019-03-03T21:42:35.556Z,75.20
2019-03-03T21:45:19.525Z,75.50
2019-03-03T21:48:03.393Z,75.70
2019-03-03T21:50:47.443Z,75.90
2019-03-03T21:53:29.878Z,76.30
2019-03-03T21:56:11.466Z,76.60
2019-03-03T21:58:53.430Z,77.00
2019-03-03T22:01:35.507Z,77.10
2019-03-03T22:04:17.420Z,77.40
2019-03-03T22:06:59.084Z,77.60
2019-03-03T22:09:42.935Z,77.70
2019-03-03T22:12:25.056Z,77.80
2019-03-03T22:15:08.139Z,77.70
2019-03-03T22:17:50.050Z,77.70
2019-03-03T22:20:32.070Z,78.10
2019-03-03T22:23:13.941Z,78.00
2019-03-03T22:25:56.156Z,78.00
2019-03-03T22:28:38.046Z,78.10
2019-03-03T22:31:20.048Z,78.10
2019-03-03T22:34:02.107Z,78.20
2019-03-03T22:36:45.032Z,78.60
2019-03-03T22:39:27.102Z,78.80
2019-03-03T22:42:11.597Z,79.00
2019-03-03T22:44:53.978Z,78.90
2019-03-03T22:47:37.922Z,78.80
2019-03-03T22:50:22.080Z,78.90
2019-03-03T22:53:04.125Z,78.90
2019-03-03T22:55:47.205Z,78.50
2019-03-03T22:58:29.055Z,78.60
2019-03-03T23:01:12.051Z,78.40
2019-03-03T23:03:55.917Z,78.70
2019-03-03T23:06:38.184Z,78.70
2019-03-03T23:09:20.008Z,78.80
2019-03-03T23:12:01.960Z,79.10
2019-03-03T23:14:43.845Z,79.40
2019-03-03T23:17:26.805Z,80.20
2019-03-03T23:20:09.098Z,79.50
2019-03-03T23:22:51.075Z,79.70
2019-03-03T23:25:33.049Z,79.90
2019-03-03T23:28:15.931Z,80.10
2019-03-03T23:30:57.958Z,80.10
2019-03-03T23:33:40.240Z,80.50
2019-03-03T23:36:22.145Z,81.00
2019-03-03T23:39:05.106Z,81.20
2019-03-03T23:41:49.999Z,81.10
2019-03-03T23:44:33.061Z,81.00
2019-03-03T23:47:17.097Z,81.10
2019-03-03T23:50:01.258Z,81.00
2019-03-03T23:52:45.480Z,81.00
2019-03-03T23:55:29.610Z,80.80
2019-03-03T23:58:13.270Z,80.60
